sensor_id;sensor_type;location;lat;lon;timestamp;temperature;humidity
5027;DHT22;2532;52.480;13.354;2023-02-15T00:01:29;6.70;93.50
5027;DHT22;2532;52.480;13.354;2023-02-15T00:03:56;6.70;93.50
5027;DHT22;2532;52.480;13.354;2023-02-15T00:06:25;6.70;93.50
5027;DHT22;2532;52.480;13.354;2023-02-15T00:08:53;6.60;93.60
5027;DHT22;2532;52.480;13.354;2023-02-15T00:11:21;6.60;93.60
5027;DHT22;2532;52.480;13.354;2023-02-15T00:14:02;6.60;93.70
5027;DHT22;2532;52.480;13.354;2023-02-15T00:16:29;6.60;93.80
5027;DHT22;2532;52.480;13.354;2023-02-15T00:18:56;6.60;93.80
5027;DHT22;2532;52.480;13.354;2023-02-15T00:21:28;6.60;93.80
5027;DHT22;2532;52.480;13.354;2023-02-15T00:23:56;6.50;93.70
5027;DHT22;2532;52.480;13.354;2023-02-15T00:26:24;6.50;93.70
5027;DHT22;2532;52.480;13.354;2023-02-15T00:28:53;6.40;94.10
5027;DHT22;2532;52.480;13.354;2023-02-15T00:31:21;6.40;93.90
5027;DHT22;2532;52.480;13.354;2023-02-15T00:33:48;6.40;93.90
5027;DHT22;2532;52.480;13.354;2023-02-15T00:36:15;6.30;93.90
5027;DHT22;2532;52.480;13.354;2023-02-15T00:38:43;6.30;94.00
5027;DHT22;2532;52.480;13.354;2023-02-15T00:41:10;6.30;94.00
5027;DHT22;2532;52.480;13.354;2023-02-15T00:43:37;6.30;94.00
5027;DHT22;2532;52.480;13.354;2023-02-15T00:46:05;6.20;94.00
5027;DHT22;2532;52.480;13.354;2023-02-15T00:48:32;6.20;94.10
5027;DHT22;2532;52.480;13.354;2023-02-15T00:51:00;6.20;94.20
5027;DHT22;2532;52.480;13.354;2023-02-15T00:53:29;6.10;94.10
5027;DHT22;2532;52.480;13.354;2023-02-15T00:55:58;6.10;94.20
5027;DHT22;2532;52.480;13.354;2023-02-15T00:58:25;6.10;94.20
5027;DHT22;2532;52.480;13.354;2023-02-15T01:00:52;6.10;94.30
5027;DHT22;2532;52.480;13.354;2023-02-15T01:03:24;6.00;94.30
5027;DHT22;2532;52.480;13.354;2023-02-15T01:05:51;6.00;94.30
5027;DHT22;2532;52.480;13.354;2023-02-15T01:08:18;5.90;94.30
5027;DHT22;2532;52.480;13.354;2023-02-15T01:10:45;5.90;94.50
5027;DHT22;2532;52.480;13.354;2023-02-15T01:13:14;5.90;94.50
5027;DHT22;2532;52.480;13.354;2023-02-15T01:15:42;5.90;94.50
5027;DHT22;2532;52.480;13.354;2023-02-15T01:18:09;5.80;94.50
5027;DHT22;2532;52.480;13.354;2023-02-15T01:20:38;5.80;94.50
5027;DHT22;2532;52.480;13.354;2023-02-15T01:23:07;5.80;94.50
5027;DHT22;2532;52.480;13.354;2023-02-15T01:25:35;5.80;94.60
5027;DHT22;2532;52.480;13.354;2023-02-15T01:28:02;5.80;94.60
5027;DHT22;2532;52.480;13.354;2023-02-15T01:30:31;5.80;94.60
5027;DHT22;2532;52.480;13.354;2023-02-15T01:32:58;5.80;94.60
5027;DHT22;2532;52.480;13.354;2023-02-15T01:35:26;5.80;94.60
5027;DHT22;2532;52.480;13.354;2023-02-15T01:37:54;5.90;94.60
5027;DHT22;2532;52.480;13.354;2023-02-15T01:40:21;5.90;94.60
5027;DHT22;2532;52.480;13.354;2023-02-15T01:42:50;5.90;94.60
5027;DHT22;2532;52.480;13.354;2023-02-15T01:45:23;5.90;94.60
5027;DHT22;2532;52.480;13.354;2023-02-15T01:47:56;5.90;94.60
5027;DHT22;2532;52.480;13.354;2023-02-15T01:50:34;5.90;94.60
5027;DHT22;2532;52.480;13.354;2023-02-15T01:53:07;5.90;94.50
5027;DHT22;2532;52.480;13.354;2023-02-15T01:55:39;5.80;94.40
5027;DHT22;2532;52.480;13.354;2023-02-15T01:58:07;5.80;94.50
5027;DHT22;2532;52.480;13.354;2023-02-15T02:00:35;5.80;94.50
5027;DHT22;2532;52.480;13.354;2023-02-15T02:03:03;5.80;94.60
5027;DHT22;2532;52.480;13.354;2023-02-15T02:05:32;5.80;94.50
5027;DHT22;2532;52.480;13.354;2023-02-15T02:08:01;5.80;94.50
5027;DHT22;2532;52.480;13.354;2023-02-15T02:10:28;5.80;94.50
5027;DHT22;2532;52.480;13.354;2023-02-15T02:12:59;5.70;94.50
5027;DHT22;2532;52.480;13.354;2023-02-15T02:15:31;5.80;94.50
5027;DHT22;2532;52.480;13.354;2023-02-15T02:18:13;5.80;94.50
5027;DHT22;2532;52.480;13.354;2023-02-15T02:21:13;5.80;94.50
5027;DHT22;2532;52.480;13.354;2023-02-15T02:24:08;5.80;94.50
5027;DHT22;2532;52.480;13.354;2023-02-15T02:27:22;5.70;94.50
5027;DHT22;2532;52.480;13.354;2023-02-15T02:33:28;5.70;94.60
5027;DHT22;2532;52.480;13.354;2023-02-15T02:36:06;5.70;94.60
5027;DHT22;2532;52.480;13.354;2023-02-15T02:38:42;5.60;94.60
5027;DHT22;2532;52.480;13.354;2023-02-15T02:41:17;5.60;94.60
5027;DHT22;2532;52.480;13.354;2023-02-15T02:43:50;5.60;94.60
5027;DHT22;2532;52.480;13.354;2023-02-15T02:46:22;5.60;94.50
5027;DHT22;2532;52.480;13.354;2023-02-15T02:48:52;5.50;94.60
5027;DHT22;2532;52.480;13.354;2023-02-15T02:51:20;5.50;94.70
5027;DHT22;2532;52.480;13.354;2023-02-15T02:53:50;5.50;94.60
5027;DHT22;2532;52.480;13.354;2023-02-15T02:56:21;5.50;94.60
5027;DHT22;2532;52.480;13.354;2023-02-15T02:58:52;5.40;94.60
5027;DHT22;2532;52.480;13.354;2023-02-15T03:01:26;5.40;94.60
5027;DHT22;2532;52.480;13.354;2023-02-15T03:03:56;5.30;94.70
5027;DHT22;2532;52.480;13.354;2023-02-15T03:06:35;5.30;94.70
5027;DHT22;2532;52.480;13.354;2023-02-15T03:09:08;5.30;94.80
5027;DHT22;2532;52.480;13.354;2023-02-15T03:11:41;5.30;94.90
5027;DHT22;2532;52.480;13.354;2023-02-15T03:14:10;5.30;94.90
5027;DHT22;2532;52.480;13.354;2023-02-15T03:16:38;5.30;94.90
5027;DHT22;2532;52.480;13.354;2023-02-15T03:19:10;5.20;94.70
5027;DHT22;2532;52.480;13.354;2023-02-15T03:21:43;5.20;94.70
5027;DHT22;2532;52.480;13.354;2023-02-15T03:24:20;5.10;94.70
5027;DHT22;2532;52.480;13.354;2023-02-15T03:26:50;5.10;94.60
5027;DHT22;2532;52.480;13.354;2023-02-15T03:29:20;5.00;94.50
5027;DHT22;2532;52.480;13.354;2023-02-15T03:31:53;4.90;94.60
5027;DHT22;2532;52.480;13.354;2023-02-15T03:34:22;4.80;94.60
5027;DHT22;2532;52.480;13.354;2023-02-15T03:36:52;4.80;94.70
5027;DHT22;2532;52.480;13.354;2023-02-15T03:39:29;4.80;94.70
5027;DHT22;2532;52.480;13.354;2023-02-15T03:42:01;4.80;94.70
5027;DHT22;2532;52.480;13.354;2023-02-15T03:44:35;4.80;94.60
5027;DHT22;2532;52.480;13.354;2023-02-15T03:47:06;4.70;94.60
5027;DHT22;2532;52.480;13.354;2023-02-15T03:49:41;4.70;94.60
5027;DHT22;2532;52.480;13.354;2023-02-15T03:52:11;4.70;94.70
5027;DHT22;2532;52.480;13.354;2023-02-15T03:54:37;4.60;94.60
5027;DHT22;2532;52.480;13.354;2023-02-15T03:57:18;4.60;94.70
5027;DHT22;2532;52.480;13.354;2023-02-15T04:00:05;4.50;94.70
5027;DHT22;2532;52.480;13.354;2023-02-15T04:03:20;4.50;94.80
5027;DHT22;2532;52.480;13.354;2023-02-15T04:05:50;4.40;94.80
5027;DHT22;2532;52.480;13.354;2023-02-15T04:08:17;4.30;94.80
5027;DHT22;2532;52.480;13.354;2023-02-15T04:10:45;4.30;95.00
5027;DHT22;2532;52.480;13.354;2023-02-15T04:13:22;4.30;94.90
5027;DHT22;2532;52.480;13.354;2023-02-15T04:15:50;4.30;95.00
5027;DHT22;2532;52.480;13.354;2023-02-15T04:18:32;4.30;95.10
5027;DHT22;2532;52.480;13.354;2023-02-15T04:21:19;4.30;95.00
5027;DHT22;2532;52.480;13.354;2023-02-15T04:24:04;4.30;95.00
5027;DHT22;2532;52.480;13.354;2023-02-15T04:27:02;4.20;94.90
5027;DHT22;2532;52.480;13.354;2023-02-15T04:29:30;4.10;94.90
5027;DHT22;2532;52.480;13.354;2023-02-15T04:31:58;4.10;95.00
5027;DHT22;2532;52.480;13.354;2023-02-15T04:34:26;4.00;95.00
5027;DHT22;2532;52.480;13.354;2023-02-15T04:36:54;4.00;95.00
5027;DHT22;2532;52.480;13.354;2023-02-15T04:39:21;4.10;95.20
5027;DHT22;2532;52.480;13.354;2023-02-15T04:41:51;4.00;95.00
5027;DHT22;2532;52.480;13.354;2023-02-15T04:44:18;4.00;95.00
5027;DHT22;2532;52.480;13.354;2023-02-15T04:46:45;4.00;95.00
5027;DHT22;2532;52.480;13.354;2023-02-15T04:49:12;3.90;94.90
5027;DHT22;2532;52.480;13.354;2023-02-15T04:51:39;3.90;95.00
5027;DHT22;2532;52.480;13.354;2023-02-15T04:54:08;3.90;95.00
5027;DHT22;2532;52.480;13.354;2023-02-15T04:56:35;3.90;95.30
5027;DHT22;2532;52.480;13.354;2023-02-15T04:59:03;3.80;95.00
5027;DHT22;2532;52.480;13.354;2023-02-15T05:01:33;3.80;95.00
5027;DHT22;2532;52.480;13.354;2023-02-15T05:04:00;3.70;94.90
5027;DHT22;2532;52.480;13.354;2023-02-15T05:06:29;3.70;94.90
5027;DHT22;2532;52.480;13.354;2023-02-15T05:08:56;3.70;95.00
5027;DHT22;2532;52.480;13.354;2023-02-15T05:11:25;3.60;95.00
5027;DHT22;2532;52.480;13.354;2023-02-15T05:13:52;3.60;95.10
5027;DHT22;2532;52.480;13.354;2023-02-15T05:16:19;3.50;95.00
5027;DHT22;2532;52.480;13.354;2023-02-15T05:18:46;3.50;95.10
5027;DHT22;2532;52.480;13.354;2023-02-15T05:21:13;3.40;95.00
5027;DHT22;2532;52.480;13.354;2023-02-15T05:23:42;3.50;95.10
5027;DHT22;2532;52.480;13.354;2023-02-15T05:26:09;3.50;95.20
5027;DHT22;2532;52.480;13.354;2023-02-15T05:28:57;3.40;95.00
5027;DHT22;2532;52.480;13.354;2023-02-15T05:31:28;3.40;95.10
5027;DHT22;2532;52.480;13.354;2023-02-15T05:33:55;3.30;95.20
5027;DHT22;2532;52.480;13.354;2023-02-15T05:36:24;3.30;95.20
5027;DHT22;2532;52.480;13.354;2023-02-15T05:38:51;3.30;95.20
5027;DHT22;2532;52.480;13.354;2023-02-15T05:41:18;3.30;95.20
5027;DHT22;2532;52.480;13.354;2023-02-15T05:43:45;3.30;95.20
5027;DHT22;2532;52.480;13.354;2023-02-15T05:46:14;3.30;95.20
5027;DHT22;2532;52.480;13.354;2023-02-15T05:48:41;3.20;95.20
5027;DHT22;2532;52.480;13.354;2023-02-15T05:51:10;3.10;95.30
5027;DHT22;2532;52.480;13.354;2023-02-15T05:53:39;3.10;95.40
5027;DHT22;2532;52.480;13.354;2023-02-15T05:56:08;3.10;95.50
5027;DHT22;2532;52.480;13.354;2023-02-15T05:58:37;3.10;95.60
5027;DHT22;2532;52.480;13.354;2023-02-15T06:01:08;3.20;95.70
5027;DHT22;2532;52.480;13.354;2023-02-15T06:03:37;3.20;95.80
5027;DHT22;2532;52.480;13.354;2023-02-15T06:06:04;3.20;95.80
5027;DHT22;2532;52.480;13.354;2023-02-15T06:08:32;3.20;95.70
5027;DHT22;2532;52.480;13.354;2023-02-15T06:10:59;3.30;95.80
5027;DHT22;2532;52.480;13.354;2023-02-15T06:13:26;3.30;95.90
5027;DHT22;2532;52.480;13.354;2023-02-15T06:15:53;3.30;95.80
5027;DHT22;2532;52.480;13.354;2023-02-15T06:18:20;3.40;95.80
5027;DHT22;2532;52.480;13.354;2023-02-15T06:20:51;3.40;95.70
5027;DHT22;2532;52.480;13.354;2023-02-15T06:23:19;3.40;95.60
5027;DHT22;2532;52.480;13.354;2023-02-15T06:25:46;3.40;95.40
5027;DHT22;2532;52.480;13.354;2023-02-15T06:28:13;3.30;95.40
5027;DHT22;2532;52.480;13.354;2023-02-15T06:30:40;3.30;95.40
5027;DHT22;2532;52.480;13.354;2023-02-15T06:33:07;3.30;95.50
5027;DHT22;2532;52.480;13.354;2023-02-15T06:35:34;3.30;95.60
5027;DHT22;2532;52.480;13.354;2023-02-15T06:38:03;3.20;95.20
5027;DHT22;2532;52.480;13.354;2023-02-15T06:40:31;3.20;95.20
5027;DHT22;2532;52.480;13.354;2023-02-15T06:42:58;3.10;95.40
5027;DHT22;2532;52.480;13.354;2023-02-15T06:45:25;3.10;95.50
5027;DHT22;2532;52.480;13.354;2023-02-15T06:47:53;3.10;95.60
5027;DHT22;2532;52.480;13.354;2023-02-15T06:50:20;3.00;95.60
5027;DHT22;2532;52.480;13.354;2023-02-15T06:52:47;3.00;95.50
5027;DHT22;2532;52.480;13.354;2023-02-15T06:55:15;3.00;95.60
5027;DHT22;2532;52.480;13.354;2023-02-15T06:57:42;2.90;95.70
5027;DHT22;2532;52.480;13.354;2023-02-15T07:00:10;2.90;95.80
5027;DHT22;2532;52.480;13.354;2023-02-15T07:02:38;2.80;96.10
5027;DHT22;2532;52.480;13.354;2023-02-15T07:05:05;2.80;95.90
5027;DHT22;2532;52.480;13.354;2023-02-15T07:07:34;2.80;96.00
5027;DHT22;2532;52.480;13.354;2023-02-15T07:10:01;2.70;96.00
5027;DHT22;2532;52.480;13.354;2023-02-15T07:12:29;2.70;96.10
5027;DHT22;2532;52.480;13.354;2023-02-15T07:15:08;2.80;96.20
5027;DHT22;2532;52.480;13.354;2023-02-15T07:17:36;2.80;96.30
5027;DHT22;2532;52.480;13.354;2023-02-15T07:20:05;2.80;96.30
5027;DHT22;2532;52.480;13.354;2023-02-15T07:22:33;2.80;96.20
5027;DHT22;2532;52.480;13.354;2023-02-15T07:25:02;2.80;96.10
5027;DHT22;2532;52.480;13.354;2023-02-15T07:27:30;2.80;95.90
5027;DHT22;2532;52.480;13.354;2023-02-15T07:30:00;2.70;95.80
5027;DHT22;2532;52.480;13.354;2023-02-15T07:32:28;2.70;96.00
5027;DHT22;2532;52.480;13.354;2023-02-15T07:34:56;2.60;96.20
5027;DHT22;2532;52.480;13.354;2023-02-15T07:37:25;2.70;96.40
5027;DHT22;2532;52.480;13.354;2023-02-15T07:39:52;2.70;96.20
5027;DHT22;2532;52.480;13.354;2023-02-15T07:42:19;2.70;96.40
5027;DHT22;2532;52.480;13.354;2023-02-15T07:44:48;2.70;96.20
5027;DHT22;2532;52.480;13.354;2023-02-15T07:47:15;2.70;96.30
5027;DHT22;2532;52.480;13.354;2023-02-15T07:49:43;2.70;96.40
5027;DHT22;2532;52.480;13.354;2023-02-15T07:52:10;2.70;96.40
5027;DHT22;2532;52.480;13.354;2023-02-15T07:54:37;2.70;96.40
5027;DHT22;2532;52.480;13.354;2023-02-15T07:57:04;2.70;96.40
5027;DHT22;2532;52.480;13.354;2023-02-15T07:59:31;2.70;96.40
5027;DHT22;2532;52.480;13.354;2023-02-15T08:02:00;2.80;96.50
5027;DHT22;2532;52.480;13.354;2023-02-15T08:04:27;2.80;96.50
5027;DHT22;2532;52.480;13.354;2023-02-15T08:06:54;2.80;96.50
5027;DHT22;2532;52.480;13.354;2023-02-15T08:09:22;2.70;96.40
5027;DHT22;2532;52.480;13.354;2023-02-15T08:11:49;2.70;96.50
5027;DHT22;2532;52.480;13.354;2023-02-15T08:14:17;2.70;96.40
5027;DHT22;2532;52.480;13.354;2023-02-15T08:16:46;2.70;96.40
5027;DHT22;2532;52.480;13.354;2023-02-15T08:19:16;2.70;96.40
5027;DHT22;2532;52.480;13.354;2023-02-15T08:21:45;2.70;96.40
5027;DHT22;2532;52.480;13.354;2023-02-15T08:24:13;2.70;96.50
5027;DHT22;2532;52.480;13.354;2023-02-15T08:26:41;2.70;96.80
5027;DHT22;2532;52.480;13.354;2023-02-15T08:29:10;2.80;97.00
5027;DHT22;2532;52.480;13.354;2023-02-15T08:31:38;2.90;97.10
5027;DHT22;2532;52.480;13.354;2023-02-15T08:34:07;3.00;97.10
5027;DHT22;2532;52.480;13.354;2023-02-15T08:36:35;3.00;96.90
5027;DHT22;2532;52.480;13.354;2023-02-15T08:39:04;3.10;96.90
5027;DHT22;2532;52.480;13.354;2023-02-15T08:41:33;3.20;97.00
5027;DHT22;2532;52.480;13.354;2023-02-15T08:44:02;3.30;97.00
5027;DHT22;2532;52.480;13.354;2023-02-15T08:46:32;3.40;96.80
5027;DHT22;2532;52.480;13.354;2023-02-15T08:48:59;3.50;97.20
5027;DHT22;2532;52.480;13.354;2023-02-15T08:51:28;3.60;97.30
5027;DHT22;2532;52.480;13.354;2023-02-15T08:53:58;3.70;96.80
5027;DHT22;2532;52.480;13.354;2023-02-15T08:56:27;3.70;96.50
5027;DHT22;2532;52.480;13.354;2023-02-15T08:58:55;3.70;96.30
5027;DHT22;2532;52.480;13.354;2023-02-15T09:01:24;3.70;96.20
5027;DHT22;2532;52.480;13.354;2023-02-15T09:03:56;3.80;96.30
5027;DHT22;2532;52.480;13.354;2023-02-15T09:06:24;3.80;96.20
5027;DHT22;2532;52.480;13.354;2023-02-15T09:08:53;3.90;96.10
5027;DHT22;2532;52.480;13.354;2023-02-15T09:11:23;3.90;95.90
5027;DHT22;2532;52.480;13.354;2023-02-15T09:13:53;3.90;95.80
5027;DHT22;2532;52.480;13.354;2023-02-15T09:16:21;3.90;95.80
5027;DHT22;2532;52.480;13.354;2023-02-15T09:18:49;3.90;96.00
5027;DHT22;2532;52.480;13.354;2023-02-15T09:21:18;3.90;95.90
5027;DHT22;2532;52.480;13.354;2023-02-15T09:23:47;4.00;95.90
5027;DHT22;2532;52.480;13.354;2023-02-15T09:26:16;4.00;95.80
5027;DHT22;2532;52.480;13.354;2023-02-15T09:28:44;4.00;95.80
5027;DHT22;2532;52.480;13.354;2023-02-15T09:31:14;4.00;95.80
5027;DHT22;2532;52.480;13.354;2023-02-15T09:33:43;4.10;95.90
5027;DHT22;2532;52.480;13.354;2023-02-15T09:36:16;4.10;95.80
5027;DHT22;2532;52.480;13.354;2023-02-15T09:38:43;4.10;96.10
5027;DHT22;2532;52.480;13.354;2023-02-15T09:41:38;4.20;96.00
5027;DHT22;2532;52.480;13.354;2023-02-15T09:44:17;4.30;95.90
5027;DHT22;2532;52.480;13.354;2023-02-15T09:47:09;4.40;95.70
5027;DHT22;2532;52.480;13.354;2023-02-15T09:49:46;4.40;95.70
5027;DHT22;2532;52.480;13.354;2023-02-15T09:52:29;4.50;95.80
5027;DHT22;2532;52.480;13.354;2023-02-15T09:55:13;4.50;95.90
5027;DHT22;2532;52.480;13.354;2023-02-15T09:57:48;4.60;95.70
5027;DHT22;2532;52.480;13.354;2023-02-15T10:00:26;4.70;95.50
5027;DHT22;2532;52.480;13.354;2023-02-15T10:03:15;4.70;95.40
5027;DHT22;2532;52.480;13.354;2023-02-15T10:05:57;4.70;95.50
5027;DHT22;2532;52.480;13.354;2023-02-15T10:08:52;4.70;95.60
5027;DHT22;2532;52.480;13.354;2023-02-15T10:11:25;4.80;95.80
5027;DHT22;2532;52.480;13.354;2023-02-15T10:14:17;4.80;95.50
5027;DHT22;2532;52.480;13.354;2023-02-15T10:16:53;4.80;95.50
5027;DHT22;2532;52.480;13.354;2023-02-15T10:19:28;4.80;95.40
5027;DHT22;2532;52.480;13.354;2023-02-15T10:22:06;4.90;95.60
5027;DHT22;2532;52.480;13.354;2023-02-15T10:27:31;5.00;95.40
5027;DHT22;2532;52.480;13.354;2023-02-15T10:30:07;5.10;95.40
5027;DHT22;2532;52.480;13.354;2023-02-15T10:32:44;5.00;95.30
5027;DHT22;2532;52.480;13.354;2023-02-15T10:35:22;5.10;95.50
5027;DHT22;2532;52.480;13.354;2023-02-15T10:38:01;5.10;95.50
5027;DHT22;2532;52.480;13.354;2023-02-15T10:40:35;5.20;95.50
5027;DHT22;2532;52.480;13.354;2023-02-15T10:43:20;5.30;95.50
5027;DHT22;2532;52.480;13.354;2023-02-15T10:45:56;5.40;95.40
5027;DHT22;2532;52.480;13.354;2023-02-15T10:49:01;5.50;95.40
5027;DHT22;2532;52.480;13.354;2023-02-15T10:51:41;5.50;95.10
5027;DHT22;2532;52.480;13.354;2023-02-15T10:54:19;5.60;95.10
5027;DHT22;2532;52.480;13.354;2023-02-15T10:56:54;5.60;95.10
5027;DHT22;2532;52.480;13.354;2023-02-15T10:59:37;5.70;95.10
5027;DHT22;2532;52.480;13.354;2023-02-15T11:02:13;5.70;95.10
5027;DHT22;2532;52.480;13.354;2023-02-15T11:04:51;5.80;95.30
5027;DHT22;2532;52.480;13.354;2023-02-15T11:07:24;5.80;94.90
5027;DHT22;2532;52.480;13.354;2023-02-15T11:10:00;5.90;95.10
5027;DHT22;2532;52.480;13.354;2023-02-15T11:12:29;5.90;95.20
5027;DHT22;2532;52.480;13.354;2023-02-15T11:15:01;6.10;95.20
5027;DHT22;2532;52.480;13.354;2023-02-15T11:17:35;6.20;95.10
5027;DHT22;2532;52.480;13.354;2023-02-15T11:20:16;6.20;94.90
5027;DHT22;2532;52.480;13.354;2023-02-15T11:22:48;6.30;94.70
5027;DHT22;2532;52.480;13.354;2023-02-15T11:25:19;6.40;94.80
5027;DHT22;2532;52.480;13.354;2023-02-15T11:27:49;6.50;94.60
5027;DHT22;2532;52.480;13.354;2023-02-15T11:30:20;6.60;94.50
5027;DHT22;2532;52.480;13.354;2023-02-15T11:32:50;6.60;94.50
5027;DHT22;2532;52.480;13.354;2023-02-15T11:35:26;6.80;94.90
5027;DHT22;2532;52.480;13.354;2023-02-15T11:37:59;6.80;94.70
5027;DHT22;2532;52.480;13.354;2023-02-15T11:40:30;7.00;94.50
5027;DHT22;2532;52.480;13.354;2023-02-15T11:43:03;7.10;94.30
5027;DHT22;2532;52.480;13.354;2023-02-15T11:45:33;7.20;94.10
5027;DHT22;2532;52.480;13.354;2023-02-15T11:48:04;7.30;94.10
5027;DHT22;2532;52.480;13.354;2023-02-15T11:50:37;7.40;93.80
5027;DHT22;2532;52.480;13.354;2023-02-15T11:53:07;7.50;93.80
5027;DHT22;2532;52.480;13.354;2023-02-15T11:55:36;7.50;93.70
5027;DHT22;2532;52.480;13.354;2023-02-15T11:58:09;7.60;93.80
5027;DHT22;2532;52.480;13.354;2023-02-15T12:00:39;7.70;93.80
5027;DHT22;2532;52.480;13.354;2023-02-15T12:03:14;7.90;93.70
5027;DHT22;2532;52.480;13.354;2023-02-15T12:05:46;7.90;93.40
5027;DHT22;2532;52.480;13.354;2023-02-15T12:08:16;8.00;93.20
5027;DHT22;2532;52.480;13.354;2023-02-15T12:10:55;8.10;93.30
5027;DHT22;2532;52.480;13.354;2023-02-15T12:13:24;8.10;93.20
5027;DHT22;2532;52.480;13.354;2023-02-15T12:15:54;8.10;93.20
5027;DHT22;2532;52.480;13.354;2023-02-15T12:18:34;8.20;93.20
5027;DHT22;2532;52.480;13.354;2023-02-15T12:21:07;8.30;93.20
5027;DHT22;2532;52.480;13.354;2023-02-15T12:23:39;8.40;93.20
5027;DHT22;2532;52.480;13.354;2023-02-15T12:26:08;8.50;93.10
5027;DHT22;2532;52.480;13.354;2023-02-15T12:28:38;8.60;93.20
5027;DHT22;2532;52.480;13.354;2023-02-15T12:31:10;8.70;93.10
5027;DHT22;2532;52.480;13.354;2023-02-15T12:33:45;8.80;92.90
5027;DHT22;2532;52.480;13.354;2023-02-15T12:36:18;8.90;92.90
5027;DHT22;2532;52.480;13.354;2023-02-15T12:39:05;9.00;92.70
5027;DHT22;2532;52.480;13.354;2023-02-15T12:41:32;9.10;92.90
5027;DHT22;2532;52.480;13.354;2023-02-15T12:44:05;9.20;92.50
5027;DHT22;2532;52.480;13.354;2023-02-15T12:46:33;9.30;92.40
5027;DHT22;2532;52.480;13.354;2023-02-15T12:49:06;9.40;92.30
5027;DHT22;2532;52.480;13.354;2023-02-15T12:51:45;9.50;92.40
5027;DHT22;2532;52.480;13.354;2023-02-15T12:54:27;9.60;92.30
5027;DHT22;2532;52.480;13.354;2023-02-15T12:56:55;9.70;92.10
5027;DHT22;2532;52.480;13.354;2023-02-15T12:59:23;9.90;91.80
5027;DHT22;2532;52.480;13.354;2023-02-15T13:01:51;9.90;91.60
5027;DHT22;2532;52.480;13.354;2023-02-15T13:04:23;10.00;91.10
5027;DHT22;2532;52.480;13.354;2023-02-15T13:06:58;10.10;91.20
5027;DHT22;2532;52.480;13.354;2023-02-15T13:09:38;10.20;91.10
5027;DHT22;2532;52.480;13.354;2023-02-15T13:12:17;10.30;91.00
5027;DHT22;2532;52.480;13.354;2023-02-15T13:14:46;10.40;90.70
5027;DHT22;2532;52.480;13.354;2023-02-15T13:17:21;10.50;90.50
5027;DHT22;2532;52.480;13.354;2023-02-15T13:19:57;10.60;90.40
5027;DHT22;2532;52.480;13.354;2023-02-15T13:22:35;10.60;90.30
5027;DHT22;2532;52.480;13.354;2023-02-15T13:25:12;10.60;90.30
5027;DHT22;2532;52.480;13.354;2023-02-15T13:27:42;10.70;90.40
5027;DHT22;2532;52.480;13.354;2023-02-15T13:30:20;10.70;90.40
5027;DHT22;2532;52.480;13.354;2023-02-15T13:32:51;10.70;90.40
5027;DHT22;2532;52.480;13.354;2023-02-15T13:35:19;10.80;90.40
5027;DHT22;2532;52.480;13.354;2023-02-15T13:37:59;10.90;90.40
5027;DHT22;2532;52.480;13.354;2023-02-15T13:40:33;11.00;90.30
5027;DHT22;2532;52.480;13.354;2023-02-15T13:43:10;11.10;90.00
5027;DHT22;2532;52.480;13.354;2023-02-15T13:45:47;11.10;90.10
5027;DHT22;2532;52.480;13.354;2023-02-15T13:48:22;11.10;90.10
5027;DHT22;2532;52.480;13.354;2023-02-15T13:51:05;11.10;90.00
5027;DHT22;2532;52.480;13.354;2023-02-15T13:53:56;11.20;90.00
5027;DHT22;2532;52.480;13.354;2023-02-15T13:56:30;11.20;90.00
5027;DHT22;2532;52.480;13.354;2023-02-15T13:59:22;11.30;90.00
5027;DHT22;2532;52.480;13.354;2023-02-15T14:01:56;11.30;90.10
5027;DHT22;2532;52.480;13.354;2023-02-15T14:04:49;11.40;90.10
5027;DHT22;2532;52.480;13.354;2023-02-15T14:07:37;11.50;90.00
5027;DHT22;2532;52.480;13.354;2023-02-15T14:10:35;11.60;89.90
5027;DHT22;2532;52.480;13.354;2023-02-15T14:13:31;11.70;89.50
5027;DHT22;2532;52.480;13.354;2023-02-15T14:16:03;11.80;88.80
5027;DHT22;2532;52.480;13.354;2023-02-15T14:18:38;11.90;88.80
5027;DHT22;2532;52.480;13.354;2023-02-15T14:21:13;11.90;88.80
5027;DHT22;2532;52.480;13.354;2023-02-15T14:23:53;12.10;88.90
5027;DHT22;2532;52.480;13.354;2023-02-15T14:26:32;12.10;88.30
5027;DHT22;2532;52.480;13.354;2023-02-15T14:29:10;12.20;88.00
5027;DHT22;2532;52.480;13.354;2023-02-15T14:31:43;12.30;88.00
5027;DHT22;2532;52.480;13.354;2023-02-15T14:34:22;12.40;87.80
5027;DHT22;2532;52.480;13.354;2023-02-15T14:36:51;12.40;87.70
5027;DHT22;2532;52.480;13.354;2023-02-15T14:39:28;12.40;87.40
5027;DHT22;2532;52.480;13.354;2023-02-15T14:42:20;12.60;87.50
5027;DHT22;2532;52.480;13.354;2023-02-15T14:45:01;12.60;87.30
5027;DHT22;2532;52.480;13.354;2023-02-15T14:47:36;12.60;86.90
5027;DHT22;2532;52.480;13.354;2023-02-15T14:50:37;12.70;86.60
5027;DHT22;2532;52.480;13.354;2023-02-15T14:53:33;12.70;86.50
5027;DHT22;2532;52.480;13.354;2023-02-15T14:56:22;12.70;86.80
5027;DHT22;2532;52.480;13.354;2023-02-15T14:59:15;12.70;86.90
5027;DHT22;2532;52.480;13.354;2023-02-15T15:01:55;12.70;86.80
5027;DHT22;2532;52.480;13.354;2023-02-15T15:04:27;12.70;86.40
5027;DHT22;2532;52.480;13.354;2023-02-15T15:07:07;12.70;86.70
5027;DHT22;2532;52.480;13.354;2023-02-15T15:09:37;12.70;86.80
5027;DHT22;2532;52.480;13.354;2023-02-15T15:12:37;12.80;86.80
5027;DHT22;2532;52.480;13.354;2023-02-15T15:15:34;12.70;86.50
5027;DHT22;2532;52.480;13.354;2023-02-15T15:18:04;12.80;86.70
5027;DHT22;2532;52.480;13.354;2023-02-15T15:20:44;12.70;86.50
5027;DHT22;2532;52.480;13.354;2023-02-15T15:26:27;12.60;86.60
5027;DHT22;2532;52.480;13.354;2023-02-15T15:29:00;12.60;86.70
5027;DHT22;2532;52.480;13.354;2023-02-15T15:31:45;12.60;86.80
5027;DHT22;2532;52.480;13.354;2023-02-15T15:34:49;12.60;86.80
5027;DHT22;2532;52.480;13.354;2023-02-15T15:38:04;12.50;86.90
5027;DHT22;2532;52.480;13.354;2023-02-15T15:41:06;12.50;87.10
5027;DHT22;2532;52.480;13.354;2023-02-15T15:47:06;12.40;86.90
5027;DHT22;2532;52.480;13.354;2023-02-15T15:49:40;12.40;87.00
5027;DHT22;2532;52.480;13.354;2023-02-15T15:52:19;12.30;87.10
5027;DHT22;2532;52.480;13.354;2023-02-15T15:54:49;12.30;87.30
5027;DHT22;2532;52.480;13.354;2023-02-15T15:57:21;12.20;87.20
5027;DHT22;2532;52.480;13.354;2023-02-15T15:59:51;12.10;87.20
5027;DHT22;2532;52.480;13.354;2023-02-15T16:02:21;12.10;87.20
5027;DHT22;2532;52.480;13.354;2023-02-15T16:04:49;12.10;87.00
5027;DHT22;2532;52.480;13.354;2023-02-15T16:07:24;12.00;86.90
5027;DHT22;2532;52.480;13.354;2023-02-15T16:09:57;12.00;86.90
5027;DHT22;2532;52.480;13.354;2023-02-15T16:12:25;11.90;86.90
5027;DHT22;2532;52.480;13.354;2023-02-15T16:14:54;11.90;86.90
5027;DHT22;2532;52.480;13.354;2023-02-15T16:17:25;11.80;86.80
5027;DHT22;2532;52.480;13.354;2023-02-15T16:20:03;11.80;86.90
5027;DHT22;2532;52.480;13.354;2023-02-15T16:22:33;11.70;86.90
5027;DHT22;2532;52.480;13.354;2023-02-15T16:25:31;11.60;87.10
5027;DHT22;2532;52.480;13.354;2023-02-15T16:28:07;11.60;87.20
5027;DHT22;2532;52.480;13.354;2023-02-15T16:30:36;11.50;87.40
5027;DHT22;2532;52.480;13.354;2023-02-15T16:33:07;11.50;87.40
5027;DHT22;2532;52.480;13.354;2023-02-15T16:35:36;11.50;87.50
5027;DHT22;2532;52.480;13.354;2023-02-15T16:38:04;11.40;87.50
5027;DHT22;2532;52.480;13.354;2023-02-15T16:40:41;11.30;87.60
5027;DHT22;2532;52.480;13.354;2023-02-15T16:43:14;11.30;87.90
5027;DHT22;2532;52.480;13.354;2023-02-15T16:45:42;11.20;88.10
5027;DHT22;2532;52.480;13.354;2023-02-15T16:48:17;11.20;88.20